PWSweather.com
Personal Weather Stations
Station Observations
WXGLH1124
Southern Oaks, Indianapolis, IN 46217

Southern OaksIndianapolis, IN 46217

Lat: 39.65113, Lon: -86.16866

Elevation: 720

Station Type: Vantage Pro2

High Low Average
Temperature 35.6°F2.0°C 32.5°F0.3°C 33.8°F1.0°C
Dew Point 31.6°F-0.2°C 29.3°F-1.5°C 30.3°F-0.9°C
Winds 13.0 mph 20.9 kmh Calm Calm 1.0 mph SW1.6 kmh SW
Wind Gusts 14.0 mph22.5 kmh -- 3.0 mph4.8 kmh
Humidity 92% 79% 87%
Pressure 30.32 in1026.8 mb 30.20 in1022.7 mb -
Precipitation 0.00 in0.0 mm - -
Hour Temp Dew Point Humidity Winds Wind Gusts Pressure Precip Precip Rate Daily Precip Total
12:00 AM 32.8°F0.4°C 30.7°F-0.7°C 92% Calm Calm 11.0 mph17.7 kmh 30.20 in1022.7 mb 0.00 in0.0 mm 0.00 in0.0 mm 0.00 in0.0 mm
12:05 AM 32.8°F0.4°C 30.7°F-0.7°C 92% 5.0 mph SW8.0 kmh SW 8.0 mph12.9 kmh 30.20 in1022.7 mb 0.00 in0.0 mm 0.00 in0.0 mm 0.00 in0.0 mm
12:10 AM 32.8°F0.4°C 30.7°F-0.7°C 92% 3.0 mph WSW4.8 kmh WSW 7.0 mph11.3 kmh 30.21 in1023.0 mb 0.00 in0.0 mm 0.00 in0.0 mm 0.00 in0.0 mm
12:15 AM 32.8°F0.4°C 30.7°F-0.7°C 92% 6.0 mph WSW9.7 kmh WSW 8.0 mph12.9 kmh 30.21 in1023.0 mb 0.00 in0.0 mm 0.00 in0.0 mm 0.00 in0.0 mm
12:19 AM 32.9°F0.5°C 30.8°F-0.7°C 92% 5.0 mph SW8.0 kmh SW 10.0 mph16.1 kmh 30.21 in1023.0 mb 0.00 in0.0 mm 0.00 in0.0 mm 0.00 in0.0 mm
12:25 AM 32.9°F0.5°C 30.8°F-0.7°C 92% 6.0 mph WSW9.7 kmh WSW 11.0 mph17.7 kmh 30.21 in1023.0 mb 0.00 in0.0 mm 0.00 in0.0 mm 0.00 in0.0 mm
12:30 AM 32.9°F0.5°C 30.8°F-0.7°C 92% 6.0 mph SW9.7 kmh SW 11.0 mph17.7 kmh 30.21 in1023.0 mb 0.00 in0.0 mm 0.00 in0.0 mm 0.00 in0.0 mm
12:35 AM 32.9°F0.5°C 30.8°F-0.7°C 92% 5.0 mph SW8.0 kmh SW 12.0 mph19.3 kmh 30.21 in1023.0 mb 0.00 in0.0 mm 0.00 in0.0 mm 0.00 in0.0 mm
12:40 AM 32.9°F0.5°C 30.8°F-0.7°C 92% 3.0 mph SW4.8 kmh SW 9.0 mph14.5 kmh 30.21 in1023.0 mb 0.00 in0.0 mm 0.00 in0.0 mm 0.00 in0.0 mm
12:45 AM 32.9°F0.5°C 30.8°F-0.7°C 92% 10.0 mph W16.1 kmh W 10.0 mph16.1 kmh 30.20 in1022.7 mb 0.00 in0.0 mm 0.00 in0.0 mm 0.00 in0.0 mm
12:49 AM 32.9°F0.5°C 30.8°F-0.7°C 92% 9.0 mph WSW14.5 kmh WSW 16.0 mph25.7 kmh 30.20 in1022.7 mb 0.00 in0.0 mm 0.00 in0.0 mm 0.00 in0.0 mm
12:55 AM 33.0°F0.6°C 30.9°F-0.6°C 92% 10.0 mph WSW16.1 kmh WSW 10.0 mph16.1 kmh 30.20 in1022.7 mb 0.00 in0.0 mm 0.00 in0.0 mm 0.00 in0.0 mm
01:00 AM 33.0°F0.6°C 30.9°F-0.6°C 92% 5.0 mph WSW8.0 kmh WSW 8.0 mph12.9 kmh 30.20 in1022.7 mb 0.00 in0.0 mm 0.00 in0.0 mm 0.00 in0.0 mm
01:04 AM 33.0°F0.6°C 30.9°F-0.6°C 92% 13.0 mph SW20.9 kmh SW 13.0 mph20.9 kmh 30.20 in1022.7 mb 0.00 in0.0 mm 0.00 in0.0 mm 0.00 in0.0 mm
01:10 AM 33.0°F0.6°C 30.9°F-0.6°C 92% 9.0 mph SW14.5 kmh SW 10.0 mph16.1 kmh 30.20 in1022.7 mb 0.00 in0.0 mm 0.00 in0.0 mm 0.00 in0.0 mm
01:14 AM 33.0°F0.6°C 30.9°F-0.6°C 92% 7.0 mph WSW11.3 kmh WSW 8.0 mph12.9 kmh 30.20 in1022.7 mb 0.00 in0.0 mm 0.00 in0.0 mm 0.00 in0.0 mm
01:19 AM 33.0°F0.6°C 30.9°F-0.6°C 92% 5.0 mph SW8.0 kmh SW 6.0 mph9.7 kmh 30.20 in1022.7 mb 0.00 in0.0 mm 0.00 in0.0 mm 0.00 in0.0 mm
01:25 AM 33.0°F0.6°C 30.9°F-0.6°C 92% 7.0 mph SW11.3 kmh SW 9.0 mph14.5 kmh 30.20 in1022.7 mb 0.00 in0.0 mm 0.00 in0.0 mm 0.00 in0.0 mm
01:30 AM 33.0°F0.6°C 30.9°F-0.6°C 92% 9.0 mph SW14.5 kmh SW 14.0 mph22.5 kmh 30.20 in1022.7 mb 0.00 in0.0 mm 0.00 in0.0 mm 0.00 in0.0 mm
01:35 AM 33.0°F0.6°C 30.9°F-0.6°C 92% 7.0 mph SW11.3 kmh SW 12.0 mph19.3 kmh 30.20 in1022.7 mb 0.00 in0.0 mm 0.00 in0.0 mm 0.00 in0.0 mm
01:40 AM 33.0°F0.6°C 30.9°F-0.6°C 92% 1.0 mph SW1.6 kmh SW 14.0 mph22.5 kmh 30.20 in1022.7 mb 0.00 in0.0 mm 0.00 in0.0 mm 0.00 in0.0 mm
01:44 AM 33.0°F0.6°C 30.9°F-0.6°C 92% 10.0 mph SW16.1 kmh SW 13.0 mph20.9 kmh 30.20 in1022.7 mb 0.00 in0.0 mm 0.00 in0.0 mm 0.00 in0.0 mm
01:50 AM 33.0°F0.6°C 30.9°F-0.6°C 92% 3.0 mph WSW4.8 kmh WSW 7.0 mph11.3 kmh 30.20 in1022.7 mb 0.00 in0.0 mm 0.00 in0.0 mm 0.00 in0.0 mm
01:55 AM 33.0°F0.6°C 30.9°F-0.6°C 92% 3.0 mph NW4.8 kmh NW 8.0 mph12.9 kmh 30.20 in1022.7 mb 0.00 in0.0 mm 0.00 in0.0 mm 0.00 in0.0 mm
02:00 AM 33.0°F0.6°C 30.7°F-0.7°C 91% 3.0 mph WSW4.8 kmh WSW 8.0 mph12.9 kmh 30.21 in1023.0 mb 0.00 in0.0 mm 0.00 in0.0 mm 0.00 in0.0 mm
02:05 AM 33.0°F0.6°C 30.9°F-0.6°C 92% 3.0 mph SW4.8 kmh SW 6.0 mph9.7 kmh 30.20 in1022.7 mb 0.00 in0.0 mm 0.00 in0.0 mm 0.00 in0.0 mm
02:10 AM 33.0°F0.6°C 30.9°F-0.6°C 92% 6.0 mph W9.7 kmh W 7.0 mph11.3 kmh 30.20 in1022.7 mb 0.00 in0.0 mm 0.00 in0.0 mm 0.00 in0.0 mm
02:15 AM 33.0°F0.6°C 30.9°F-0.6°C 92% 7.0 mph WSW11.3 kmh WSW 13.0 mph20.9 kmh 30.20 in1022.7 mb 0.00 in0.0 mm 0.00 in0.0 mm 0.00 in0.0 mm
02:20 AM 33.0°F0.6°C 30.9°F-0.6°C 92% 4.0 mph SW6.4 kmh SW 7.0 mph11.3 kmh 30.20 in1022.7 mb 0.00 in0.0 mm 0.00 in0.0 mm 0.00 in0.0 mm
02:25 AM 33.0°F0.6°C 30.9°F-0.6°C 92% 1.0 mph SW1.6 kmh SW 8.0 mph12.9 kmh 30.20 in1022.7 mb 0.00 in0.0 mm 0.00 in0.0 mm 0.00 in0.0 mm
02:30 AM 32.9°F0.5°C 30.6°F-0.8°C 91% 1.0 mph WNW1.6 kmh WNW 4.0 mph6.4 kmh 30.20 in1022.7 mb 0.00 in0.0 mm 0.00 in0.0 mm 0.00 in0.0 mm
02:35 AM 32.9°F0.5°C 30.6°F-0.8°C 91% 5.0 mph NW8.0 kmh NW 8.0 mph12.9 kmh 30.20 in1022.7 mb 0.00 in0.0 mm 0.00 in0.0 mm 0.00 in0.0 mm
02:40 AM 32.8°F0.4°C 30.5°F-0.8°C 91% 5.0 mph WSW8.0 kmh WSW 9.0 mph14.5 kmh 30.20 in1022.7 mb 0.00 in0.0 mm 0.00 in0.0 mm 0.00 in0.0 mm
02:45 AM 32.8°F0.4°C 30.5°F-0.8°C 91% 1.0 mph W1.6 kmh W 8.0 mph12.9 kmh 30.20 in1022.7 mb 0.00 in0.0 mm 0.00 in0.0 mm 0.00 in0.0 mm
02:50 AM 32.8°F0.4°C 30.5°F-0.8°C 91% 1.0 mph WSW1.6 kmh WSW 7.0 mph11.3 kmh 30.20 in1022.7 mb 0.00 in0.0 mm 0.00 in0.0 mm 0.00 in0.0 mm
02:55 AM 32.7°F0.4°C 30.4°F-0.9°C 91% 4.0 mph W6.4 kmh W 7.0 mph11.3 kmh 30.20 in1022.7 mb 0.00 in0.0 mm 0.00 in0.0 mm 0.00 in0.0 mm
03:00 AM 32.7°F0.4°C 30.4°F-0.9°C 91% 1.0 mph WNW1.6 kmh WNW 10.0 mph16.1 kmh 30.20 in1022.7 mb 0.00 in0.0 mm 0.00 in0.0 mm 0.00 in0.0 mm
03:05 AM 32.6°F0.3°C 30.3°F-0.9°C 91% 2.0 mph NW3.2 kmh NW 8.0 mph12.9 kmh 30.20 in1022.7 mb 0.00 in0.0 mm 0.00 in0.0 mm 0.00 in0.0 mm
03:09 AM 32.6°F0.3°C 30.3°F-0.9°C 91% 3.0 mph W4.8 kmh W 9.0 mph14.5 kmh 30.21 in1023.0 mb 0.00 in0.0 mm 0.00 in0.0 mm 0.00 in0.0 mm
03:14 AM 32.6°F0.3°C 30.3°F-0.9°C 91% 5.0 mph WSW8.0 kmh WSW 7.0 mph11.3 kmh 30.21 in1023.0 mb 0.00 in0.0 mm 0.00 in0.0 mm 0.00 in0.0 mm
03:19 AM 32.5°F0.3°C 30.4°F-0.9°C 92% 3.0 mph W4.8 kmh W 7.0 mph11.3 kmh 30.21 in1023.0 mb 0.00 in0.0 mm 0.00 in0.0 mm 0.00 in0.0 mm
03:24 AM 32.5°F0.3°C 30.4°F-0.9°C 92% 2.0 mph WSW3.2 kmh WSW 5.0 mph8.0 kmh 30.21 in1023.0 mb 0.00 in0.0 mm 0.00 in0.0 mm 0.00 in0.0 mm
03:29 AM 32.5°F0.3°C 30.4°F-0.9°C 92% 1.0 mph SW1.6 kmh SW 5.0 mph8.0 kmh 30.21 in1023.0 mb 0.00 in0.0 mm 0.00 in0.0 mm 0.00 in0.0 mm
03:35 AM 32.5°F0.3°C 30.4°F-0.9°C 92% Calm Calm 6.0 mph9.7 kmh 30.22 in1023.4 mb 0.00 in0.0 mm 0.00 in0.0 mm 0.00 in0.0 mm
03:40 AM 32.5°F0.3°C 30.4°F-0.9°C 92% 3.0 mph W4.8 kmh W 4.0 mph6.4 kmh 30.22 in1023.4 mb 0.00 in0.0 mm 0.00 in0.0 mm 0.00 in0.0 mm
03:44 AM 32.5°F0.3°C 30.4°F-0.9°C 92% 3.0 mph W4.8 kmh W 7.0 mph11.3 kmh 30.22 in1023.4 mb 0.00 in0.0 mm 0.00 in0.0 mm 0.00 in0.0 mm
03:50 AM 32.5°F0.3°C 30.4°F-0.9°C 92% 3.0 mph SW4.8 kmh SW 6.0 mph9.7 kmh 30.22 in1023.4 mb 0.00 in0.0 mm 0.00 in0.0 mm 0.00 in0.0 mm
03:55 AM 32.5°F0.3°C 30.4°F-0.9°C 92% 1.0 mph WSW1.6 kmh WSW 3.0 mph4.8 kmh 30.22 in1023.4 mb 0.00 in0.0 mm 0.00 in0.0 mm 0.00 in0.0 mm
04:00 AM 32.6°F0.3°C 30.5°F-0.8°C 92% 4.0 mph W6.4 kmh W 4.0 mph6.4 kmh 30.22 in1023.4 mb 0.00 in0.0 mm 0.00 in0.0 mm 0.00 in0.0 mm
04:05 AM 32.5°F0.3°C 30.4°F-0.9°C 92% 2.0 mph SW3.2 kmh SW 6.0 mph9.7 kmh 30.22 in1023.4 mb 0.00 in0.0 mm 0.00 in0.0 mm 0.00 in0.0 mm
04:10 AM 32.6°F0.3°C 30.5°F-0.8°C 92% 3.0 mph WSW4.8 kmh WSW 4.0 mph6.4 kmh 30.22 in1023.4 mb 0.00 in0.0 mm 0.00 in0.0 mm 0.00 in0.0 mm
04:15 AM 32.6°F0.3°C 30.5°F-0.8°C 92% 2.0 mph WNW3.2 kmh WNW 11.0 mph17.7 kmh 30.22 in1023.4 mb 0.00 in0.0 mm 0.00 in0.0 mm 0.00 in0.0 mm
04:20 AM 32.6°F0.3°C 30.5°F-0.8°C 92% 6.0 mph WSW9.7 kmh WSW 7.0 mph11.3 kmh 30.22 in1023.4 mb 0.00 in0.0 mm 0.00 in0.0 mm 0.00 in0.0 mm
04:25 AM 32.6°F0.3°C 30.5°F-0.8°C 92% 3.0 mph WSW4.8 kmh WSW 5.0 mph8.0 kmh 30.22 in1023.4 mb 0.00 in0.0 mm 0.00 in0.0 mm 0.00 in0.0 mm
04:30 AM 32.6°F0.3°C 30.5°F-0.8°C 92% 3.0 mph SW4.8 kmh SW 9.0 mph14.5 kmh 30.22 in1023.4 mb 0.00 in0.0 mm 0.00 in0.0 mm 0.00 in0.0 mm
04:35 AM 32.7°F0.4°C 30.6°F-0.8°C 92% 3.0 mph SW4.8 kmh SW 8.0 mph12.9 kmh 30.22 in1023.4 mb 0.00 in0.0 mm 0.00 in0.0 mm 0.00 in0.0 mm
04:40 AM 32.7°F0.4°C 30.6°F-0.8°C 92% 2.0 mph WNW3.2 kmh WNW 9.0 mph14.5 kmh 30.23 in1023.7 mb 0.00 in0.0 mm 0.00 in0.0 mm 0.00 in0.0 mm
04:45 AM 32.7°F0.4°C 30.4°F-0.9°C 91% 3.0 mph WNW4.8 kmh WNW 13.0 mph20.9 kmh 30.23 in1023.7 mb 0.00 in0.0 mm 0.00 in0.0 mm 0.00 in0.0 mm
04:50 AM 32.7°F0.4°C 30.4°F-0.9°C 91% 2.0 mph WNW3.2 kmh WNW 5.0 mph8.0 kmh 30.23 in1023.7 mb 0.00 in0.0 mm 0.00 in0.0 mm 0.00 in0.0 mm
04:55 AM 32.8°F0.4°C 30.5°F-0.8°C 91% 1.0 mph W1.6 kmh W 6.0 mph9.7 kmh 30.23 in1023.7 mb 0.00 in0.0 mm 0.00 in0.0 mm 0.00 in0.0 mm
05:00 AM 32.8°F0.4°C 30.5°F-0.8°C 91% 7.0 mph W11.3 kmh W 11.0 mph17.7 kmh 30.23 in1023.7 mb 0.00 in0.0 mm 0.00 in0.0 mm 0.00 in0.0 mm
05:05 AM 32.8°F0.4°C 30.5°F-0.8°C 91% 2.0 mph WNW3.2 kmh WNW 6.0 mph9.7 kmh 30.23 in1023.7 mb 0.00 in0.0 mm 0.00 in0.0 mm 0.00 in0.0 mm
05:10 AM 32.8°F0.4°C 30.5°F-0.8°C 91% 3.0 mph WSW4.8 kmh WSW 7.0 mph11.3 kmh 30.23 in1023.7 mb 0.00 in0.0 mm 0.00 in0.0 mm 0.00 in0.0 mm
05:15 AM 32.9°F0.5°C 30.6°F-0.8°C 91% 3.0 mph WNW4.8 kmh WNW 4.0 mph6.4 kmh 30.23 in1023.7 mb 0.00 in0.0 mm 0.00 in0.0 mm 0.00 in0.0 mm
05:20 AM 32.9°F0.5°C 30.6°F-0.8°C 91% 1.0 mph WNW1.6 kmh WNW 7.0 mph11.3 kmh 30.22 in1023.4 mb 0.00 in0.0 mm 0.00 in0.0 mm 0.00 in0.0 mm
05:25 AM 32.9°F0.5°C 30.6°F-0.8°C 91% 6.0 mph W9.7 kmh W 6.0 mph9.7 kmh 30.22 in1023.4 mb 0.00 in0.0 mm 0.00 in0.0 mm 0.00 in0.0 mm
05:30 AM 33.0°F0.6°C 30.7°F-0.7°C 91% 3.0 mph W4.8 kmh W 6.0 mph9.7 kmh 30.22 in1023.4 mb 0.00 in0.0 mm 0.00 in0.0 mm 0.00 in0.0 mm
05:34 AM 33.1°F0.6°C 30.8°F-0.7°C 91% 1.0 mph SW1.6 kmh SW 5.0 mph8.0 kmh 30.22 in1023.4 mb 0.00 in0.0 mm 0.00 in0.0 mm 0.00 in0.0 mm
05:40 AM 33.0°F0.6°C 30.7°F-0.7°C 91% 6.0 mph W9.7 kmh W 6.0 mph9.7 kmh 30.22 in1023.4 mb 0.00 in0.0 mm 0.00 in0.0 mm 0.00 in0.0 mm
05:45 AM 33.0°F0.6°C 30.7°F-0.7°C 91% 1.0 mph W1.6 kmh W 6.0 mph9.7 kmh 30.22 in1023.4 mb 0.00 in0.0 mm 0.00 in0.0 mm 0.00 in0.0 mm
05:49 AM 33.0°F0.6°C 30.7°F-0.7°C 91% 2.0 mph W3.2 kmh W 6.0 mph9.7 kmh 30.22 in1023.4 mb 0.00 in0.0 mm 0.00 in0.0 mm 0.00 in0.0 mm
05:55 AM 32.9°F0.5°C 30.6°F-0.8°C 91% 4.0 mph WNW6.4 kmh WNW 6.0 mph9.7 kmh 30.22 in1023.4 mb 0.00 in0.0 mm 0.00 in0.0 mm 0.00 in0.0 mm
06:00 AM 32.9°F0.5°C 30.6°F-0.8°C 91% 1.0 mph W1.6 kmh W 4.0 mph6.4 kmh 30.22 in1023.4 mb 0.00 in0.0 mm 0.00 in0.0 mm 0.00 in0.0 mm
06:05 AM 33.0°F0.6°C 30.7°F-0.7°C 91% 1.0 mph SW1.6 kmh SW 5.0 mph8.0 kmh 30.22 in1023.4 mb 0.00 in0.0 mm 0.00 in0.0 mm 0.00 in0.0 mm
06:09 AM 33.0°F0.6°C 30.7°F-0.7°C 91% 1.0 mph NW1.6 kmh NW 8.0 mph12.9 kmh 30.22 in1023.4 mb 0.00 in0.0 mm 0.00 in0.0 mm 0.00 in0.0 mm
06:14 AM 32.9°F0.5°C 30.6°F-0.8°C 91% 4.0 mph W6.4 kmh W 6.0 mph9.7 kmh 30.22 in1023.4 mb 0.00 in0.0 mm 0.00 in0.0 mm 0.00 in0.0 mm
06:20 AM 33.0°F0.6°C 30.7°F-0.7°C 91% 1.0 mph NW1.6 kmh NW 5.0 mph8.0 kmh 30.22 in1023.4 mb 0.00 in0.0 mm 0.00 in0.0 mm 0.00 in0.0 mm
06:24 AM 32.9°F0.5°C 30.6°F-0.8°C 91% 1.0 mph WSW1.6 kmh WSW 2.0 mph3.2 kmh 30.22 in1023.4 mb 0.00 in0.0 mm 0.00 in0.0 mm 0.00 in0.0 mm
06:29 AM 32.9°F0.5°C 30.6°F-0.8°C 91% Calm Calm 2.0 mph3.2 kmh 30.22 in1023.4 mb 0.00 in0.0 mm 0.00 in0.0 mm 0.00 in0.0 mm
06:35 AM 33.0°F0.6°C 30.7°F-0.7°C 91% Calm Calm 4.0 mph6.4 kmh 30.22 in1023.4 mb 0.00 in0.0 mm 0.00 in0.0 mm 0.00 in0.0 mm
06:40 AM 33.0°F0.6°C 30.7°F-0.7°C 91% 1.0 mph W1.6 kmh W 4.0 mph6.4 kmh 30.22 in1023.4 mb 0.00 in0.0 mm 0.00 in0.0 mm 0.00 in0.0 mm
06:45 AM 33.0°F0.6°C 30.7°F-0.7°C 91% Calm Calm 3.0 mph4.8 kmh 30.22 in1023.4 mb 0.00 in0.0 mm 0.00 in0.0 mm 0.00 in0.0 mm
06:50 AM 33.0°F0.6°C 30.7°F-0.7°C 91% Calm Calm 1.0 mph1.6 kmh 30.22 in1023.4 mb 0.00 in0.0 mm 0.00 in0.0 mm 0.00 in0.0 mm
06:55 AM 33.0°F0.6°C 30.7°F-0.7°C 91% 1.0 mph WSW1.6 kmh WSW 4.0 mph6.4 kmh 30.22 in1023.4 mb 0.00 in0.0 mm 0.00 in0.0 mm 0.00 in0.0 mm
07:00 AM 33.0°F0.6°C 30.7°F-0.7°C 91% Calm Calm 4.0 mph6.4 kmh 30.23 in1023.7 mb 0.00 in0.0 mm 0.00 in0.0 mm 0.00 in0.0 mm
07:05 AM 33.0°F0.6°C 30.7°F-0.7°C 91% Calm Calm 6.0 mph9.7 kmh 30.23 in1023.7 mb 0.00 in0.0 mm 0.00 in0.0 mm 0.00 in0.0 mm
07:10 AM 33.0°F0.6°C 30.7°F-0.7°C 91% Calm Calm 3.0 mph4.8 kmh 30.23 in1023.7 mb 0.00 in0.0 mm 0.00 in0.0 mm 0.00 in0.0 mm
07:15 AM 33.0°F0.6°C 30.7°F-0.7°C 91% Calm Calm 1.0 mph1.6 kmh 30.23 in1023.7 mb 0.00 in0.0 mm 0.00 in0.0 mm 0.00 in0.0 mm
07:20 AM 33.0°F0.6°C 30.7°F-0.7°C 91% 3.0 mph W4.8 kmh W 3.0 mph4.8 kmh 30.23 in1023.7 mb 0.00 in0.0 mm 0.00 in0.0 mm 0.00 in0.0 mm
07:24 AM 33.0°F0.6°C 30.7°F-0.7°C 91% 1.0 mph W1.6 kmh W 4.0 mph6.4 kmh 30.24 in1024.0 mb 0.00 in0.0 mm 0.00 in0.0 mm 0.00 in0.0 mm
07:30 AM 33.0°F0.6°C 30.7°F-0.7°C 91% Calm Calm 2.0 mph3.2 kmh 30.24 in1024.0 mb 0.00 in0.0 mm 0.00 in0.0 mm 0.00 in0.0 mm
07:35 AM 33.0°F0.6°C 30.7°F-0.7°C 91% Calm Calm 3.0 mph4.8 kmh 30.24 in1024.0 mb 0.00 in0.0 mm 0.00 in0.0 mm 0.00 in0.0 mm
07:40 AM 33.0°F0.6°C 30.7°F-0.7°C 91% 3.0 mph SW4.8 kmh SW 5.0 mph8.0 kmh 30.24 in1024.0 mb 0.00 in0.0 mm 0.00 in0.0 mm 0.00 in0.0 mm
07:44 AM 33.0°F0.6°C 30.7°F-0.7°C 91% 3.0 mph WSW4.8 kmh WSW 3.0 mph4.8 kmh 30.24 in1024.0 mb 0.00 in0.0 mm 0.00 in0.0 mm 0.00 in0.0 mm
07:50 AM 33.1°F0.6°C 30.8°F-0.7°C 91% Calm Calm 2.0 mph3.2 kmh 30.25 in1024.4 mb 0.00 in0.0 mm 0.00 in0.0 mm 0.00 in0.0 mm
07:54 AM 33.1°F0.6°C 30.8°F-0.7°C 91% 2.0 mph W3.2 kmh W 3.0 mph4.8 kmh 30.25 in1024.4 mb 0.00 in0.0 mm 0.00 in0.0 mm 0.00 in0.0 mm
07:59 AM 33.1°F0.6°C 30.8°F-0.7°C 91% 2.0 mph W3.2 kmh W 4.0 mph6.4 kmh 30.25 in1024.4 mb 0.00 in0.0 mm 0.00 in0.0 mm 0.00 in0.0 mm
08:04 AM 33.1°F0.6°C 30.8°F-0.7°C 91% Calm Calm 1.0 mph1.6 kmh 30.25 in1024.4 mb 0.00 in0.0 mm 0.00 in0.0 mm 0.00 in0.0 mm
08:10 AM 33.1°F0.6°C 30.8°F-0.7°C 91% Calm Calm 4.0 mph6.4 kmh 30.25 in1024.4 mb 0.00 in0.0 mm 0.00 in0.0 mm 0.00 in0.0 mm
08:14 AM 33.1°F0.6°C 30.8°F-0.7°C 91% 1.0 mph WSW1.6 kmh WSW 3.0 mph4.8 kmh 30.25 in1024.4 mb 0.00 in0.0 mm 0.00 in0.0 mm 0.00 in0.0 mm
08:20 AM 33.1°F0.6°C 30.8°F-0.7°C 91% Calm Calm 3.0 mph4.8 kmh 30.25 in1024.4 mb 0.00 in0.0 mm 0.00 in0.0 mm 0.00 in0.0 mm
08:25 AM 33.1°F0.6°C 30.8°F-0.7°C 91% Calm Calm -- 30.25 in1024.4 mb 0.00 in0.0 mm 0.00 in0.0 mm 0.00 in0.0 mm
08:30 AM 33.1°F0.6°C 30.8°F-0.7°C 91% Calm Calm -- 30.25 in1024.4 mb 0.00 in0.0 mm 0.00 in0.0 mm 0.00 in0.0 mm
08:35 AM 33.1°F0.6°C 30.8°F-0.7°C 91% Calm Calm -- 30.26 in1024.7 mb 0.00 in0.0 mm 0.00 in0.0 mm 0.00 in0.0 mm
08:40 AM 33.1°F0.6°C 30.8°F-0.7°C 91% Calm Calm -- 30.26 in1024.7 mb 0.00 in0.0 mm 0.00 in0.0 mm 0.00 in0.0 mm
08:45 AM 33.1°F0.6°C 30.8°F-0.7°C 91% Calm Calm -- 30.26 in1024.7 mb 0.00 in0.0 mm 0.00 in0.0 mm 0.00 in0.0 mm
08:50 AM 33.1°F0.6°C 30.8°F-0.7°C 91% Calm Calm -- 30.26 in1024.7 mb 0.00 in0.0 mm 0.00 in0.0 mm 0.00 in0.0 mm
08:55 AM 33.0°F0.6°C 30.7°F-0.7°C 91% Calm Calm -- 30.26 in1024.7 mb 0.00 in0.0 mm 0.00 in0.0 mm 0.00 in0.0 mm
09:00 AM 33.0°F0.6°C 30.7°F-0.7°C 91% Calm Calm -- 30.26 in1024.7 mb 0.00 in0.0 mm 0.00 in0.0 mm 0.00 in0.0 mm
09:05 AM 33.0°F0.6°C 30.7°F-0.7°C 91% 1.0 mph W1.6 kmh W 2.0 mph3.2 kmh 30.26 in1024.7 mb 0.00 in0.0 mm 0.00 in0.0 mm 0.00 in0.0 mm
09:10 AM 33.0°F0.6°C 30.7°F-0.7°C 91% Calm Calm -- 30.26 in1024.7 mb 0.00 in0.0 mm 0.00 in0.0 mm 0.00 in0.0 mm
09:15 AM 33.0°F0.6°C 30.7°F-0.7°C 91% Calm Calm -- 30.26 in1024.7 mb 0.00 in0.0 mm 0.00 in0.0 mm 0.00 in0.0 mm
09:20 AM 32.9°F0.5°C 30.6°F-0.8°C 91% Calm Calm -- 30.26 in1024.7 mb 0.00 in0.0 mm 0.00 in0.0 mm 0.00 in0.0 mm
09:25 AM 32.9°F0.5°C 30.6°F-0.8°C 91% Calm Calm 2.0 mph3.2 kmh 30.27 in1025.1 mb 0.00 in0.0 mm 0.00 in0.0 mm 0.00 in0.0 mm
09:30 AM 32.9°F0.5°C 30.6°F-0.8°C 91% Calm Calm 2.0 mph3.2 kmh 30.27 in1025.1 mb 0.00 in0.0 mm 0.00 in0.0 mm 0.00 in0.0 mm
09:34 AM 32.9°F0.5°C 30.6°F-0.8°C 91% 1.0 mph W1.6 kmh W 3.0 mph4.8 kmh 30.27 in1025.1 mb 0.00 in0.0 mm 0.00 in0.0 mm 0.00 in0.0 mm
09:40 AM 32.9°F0.5°C 30.6°F-0.8°C 91% Calm Calm 4.0 mph6.4 kmh 30.27 in1025.1 mb 0.00 in0.0 mm 0.00 in0.0 mm 0.00 in0.0 mm
09:45 AM 32.9°F0.5°C 30.6°F-0.8°C 91% 2.0 mph W3.2 kmh W 3.0 mph4.8 kmh 30.27 in1025.1 mb 0.00 in0.0 mm 0.00 in0.0 mm 0.00 in0.0 mm
09:50 AM 32.9°F0.5°C 30.6°F-0.8°C 91% Calm Calm 3.0 mph4.8 kmh 30.27 in1025.1 mb 0.00 in0.0 mm 0.00 in0.0 mm 0.00 in0.0 mm
09:55 AM 32.9°F0.5°C 30.6°F-0.8°C 91% 1.0 mph W1.6 kmh W 2.0 mph3.2 kmh 30.27 in1025.1 mb 0.00 in0.0 mm 0.00 in0.0 mm 0.00 in0.0 mm
10:00 AM 32.9°F0.5°C 30.6°F-0.8°C 91% Calm Calm 3.0 mph4.8 kmh 30.27 in1025.1 mb 0.00 in0.0 mm 0.00 in0.0 mm 0.00 in0.0 mm
10:05 AM 33.0°F0.6°C 30.7°F-0.7°C 91% Calm Calm 2.0 mph3.2 kmh 30.28 in1025.4 mb 0.00 in0.0 mm 0.00 in0.0 mm 0.00 in0.0 mm
10:10 AM 33.0°F0.6°C 30.7°F-0.7°C 91% Calm Calm 3.0 mph4.8 kmh 30.28 in1025.4 mb 0.00 in0.0 mm 0.00 in0.0 mm 0.00 in0.0 mm
10:15 AM 33.0°F0.6°C 30.7°F-0.7°C 91% 1.0 mph W1.6 kmh W 2.0 mph3.2 kmh 30.28 in1025.4 mb 0.00 in0.0 mm 0.00 in0.0 mm 0.00 in0.0 mm
10:20 AM 33.0°F0.6°C 30.7°F-0.7°C 91% 2.0 mph W3.2 kmh W 3.0 mph4.8 kmh 30.28 in1025.4 mb 0.00 in0.0 mm 0.00 in0.0 mm 0.00 in0.0 mm
10:25 AM 33.0°F0.6°C 30.7°F-0.7°C 91% Calm Calm 2.0 mph3.2 kmh 30.28 in1025.4 mb 0.00 in0.0 mm 0.00 in0.0 mm 0.00 in0.0 mm
10:30 AM 33.1°F0.6°C 30.8°F-0.7°C 91% 2.0 mph W3.2 kmh W 4.0 mph6.4 kmh 30.28 in1025.4 mb 0.00 in0.0 mm 0.00 in0.0 mm 0.00 in0.0 mm
10:35 AM 33.1°F0.6°C 30.8°F-0.7°C 91% Calm Calm 3.0 mph4.8 kmh 30.29 in1025.7 mb 0.00 in0.0 mm 0.00 in0.0 mm 0.00 in0.0 mm
10:40 AM 33.2°F0.7°C 30.9°F-0.6°C 91% Calm Calm -- 30.29 in1025.7 mb 0.00 in0.0 mm 0.00 in0.0 mm 0.00 in0.0 mm
10:45 AM 33.2°F0.7°C 30.9°F-0.6°C 91% 2.0 mph W3.2 kmh W 4.0 mph6.4 kmh 30.29 in1025.7 mb 0.00 in0.0 mm 0.00 in0.0 mm 0.00 in0.0 mm
10:50 AM 33.2°F0.7°C 30.9°F-0.6°C 91% Calm Calm 3.0 mph4.8 kmh 30.29 in1025.7 mb 0.00 in0.0 mm 0.00 in0.0 mm 0.00 in0.0 mm
10:55 AM 33.3°F0.7°C 31.0°F-0.6°C 91% 3.0 mph W4.8 kmh W 4.0 mph6.4 kmh 30.29 in1025.7 mb 0.00 in0.0 mm 0.00 in0.0 mm 0.00 in0.0 mm
11:00 AM 33.3°F0.7°C 31.0°F-0.6°C 91% 2.0 mph W3.2 kmh W 4.0 mph6.4 kmh 30.30 in1026.1 mb 0.00 in0.0 mm 0.00 in0.0 mm 0.00 in0.0 mm
11:05 AM 33.4°F0.8°C 31.1°F-0.5°C 91% 2.0 mph W3.2 kmh W 4.0 mph6.4 kmh 30.30 in1026.1 mb 0.00 in0.0 mm 0.00 in0.0 mm 0.00 in0.0 mm
11:10 AM 33.4°F0.8°C 30.8°F-0.7°C 90% 2.0 mph SW3.2 kmh SW 6.0 mph9.7 kmh 30.30 in1026.1 mb 0.00 in0.0 mm 0.00 in0.0 mm 0.00 in0.0 mm
11:15 AM 33.5°F0.8°C 30.9°F-0.6°C 90% Calm Calm 2.0 mph3.2 kmh 30.30 in1026.1 mb 0.00 in0.0 mm 0.00 in0.0 mm 0.00 in0.0 mm
11:20 AM 33.6°F0.9°C 31.0°F-0.6°C 90% Calm Calm -- 30.30 in1026.1 mb 0.00 in0.0 mm 0.00 in0.0 mm 0.00 in0.0 mm
11:25 AM 33.6°F0.9°C 31.0°F-0.6°C 90% Calm Calm 2.0 mph3.2 kmh 30.31 in1026.4 mb 0.00 in0.0 mm 0.00 in0.0 mm 0.00 in0.0 mm
11:30 AM 33.6°F0.9°C 31.0°F-0.6°C 90% Calm Calm 1.0 mph1.6 kmh 30.30 in1026.1 mb 0.00 in0.0 mm 0.00 in0.0 mm 0.00 in0.0 mm
11:35 AM 33.7°F0.9°C 31.1°F-0.5°C 90% 2.0 mph SW3.2 kmh SW 2.0 mph3.2 kmh 30.31 in1026.4 mb 0.00 in0.0 mm 0.00 in0.0 mm 0.00 in0.0 mm
11:40 AM 33.8°F1.0°C 31.2°F-0.4°C 90% Calm Calm -- 30.31 in1026.4 mb 0.00 in0.0 mm 0.00 in0.0 mm 0.00 in0.0 mm
11:45 AM 33.8°F1.0°C 31.2°F-0.4°C 90% Calm Calm -- 30.31 in1026.4 mb 0.00 in0.0 mm 0.00 in0.0 mm 0.00 in0.0 mm
11:49 AM 33.9°F1.1°C 31.3°F-0.4°C 90% Calm Calm -- 30.31 in1026.4 mb 0.00 in0.0 mm 0.00 in0.0 mm 0.00 in0.0 mm
11:55 AM 34.0°F1.1°C 31.4°F-0.3°C 90% Calm Calm 2.0 mph3.2 kmh 30.31 in1026.4 mb 0.00 in0.0 mm 0.00 in0.0 mm 0.00 in0.0 mm
12:00 PM 34.1°F1.2°C 31.5°F-0.3°C 90% Calm Calm -- 30.31 in1026.4 mb 0.00 in0.0 mm 0.00 in0.0 mm 0.00 in0.0 mm
12:05 PM 34.2°F1.2°C 31.6°F-0.2°C 90% Calm Calm -- 30.31 in1026.4 mb 0.00 in0.0 mm 0.00 in0.0 mm 0.00 in0.0 mm
12:10 PM 34.2°F1.2°C 31.6°F-0.2°C 90% Calm Calm 1.0 mph1.6 kmh 30.31 in1026.4 mb 0.00 in0.0 mm 0.00 in0.0 mm 0.00 in0.0 mm
12:15 PM 34.2°F1.2°C 31.6°F-0.2°C 90% Calm Calm 1.0 mph1.6 kmh 30.32 in1026.8 mb 0.00 in0.0 mm 0.00 in0.0 mm 0.00 in0.0 mm
12:20 PM 34.3°F1.3°C 31.4°F-0.3°C 89% Calm Calm 2.0 mph3.2 kmh 30.32 in1026.8 mb 0.00 in0.0 mm 0.00 in0.0 mm 0.00 in0.0 mm
12:25 PM 34.4°F1.3°C 31.5°F-0.3°C 89% Calm Calm 1.0 mph1.6 kmh 30.32 in1026.8 mb 0.00 in0.0 mm 0.00 in0.0 mm 0.00 in0.0 mm
12:30 PM 34.4°F1.3°C 31.5°F-0.3°C 89% Calm Calm 3.0 mph4.8 kmh 30.32 in1026.8 mb 0.00 in0.0 mm 0.00 in0.0 mm 0.00 in0.0 mm
12:35 PM 34.5°F1.4°C 31.6°F-0.2°C 89% Calm Calm 2.0 mph3.2 kmh 30.32 in1026.8 mb 0.00 in0.0 mm 0.00 in0.0 mm 0.00 in0.0 mm
12:40 PM 34.5°F1.4°C 31.3°F-0.4°C 88% Calm Calm 2.0 mph3.2 kmh 30.32 in1026.8 mb 0.00 in0.0 mm 0.00 in0.0 mm 0.00 in0.0 mm
12:45 PM 34.5°F1.4°C 31.3°F-0.4°C 88% Calm Calm 2.0 mph3.2 kmh 30.32 in1026.8 mb 0.00 in0.0 mm 0.00 in0.0 mm 0.00 in0.0 mm
12:50 PM 34.6°F1.4°C 31.4°F-0.3°C 88% Calm Calm 2.0 mph3.2 kmh 30.32 in1026.8 mb 0.00 in0.0 mm 0.00 in0.0 mm 0.00 in0.0 mm
12:54 PM 34.7°F1.5°C 31.5°F-0.3°C 88% Calm Calm 1.0 mph1.6 kmh 30.32 in1026.8 mb 0.00 in0.0 mm 0.00 in0.0 mm 0.00 in0.0 mm
01:00 PM 34.8°F1.6°C 31.6°F-0.2°C 88% Calm Calm 1.0 mph1.6 kmh 30.32 in1026.8 mb 0.00 in0.0 mm 0.00 in0.0 mm 0.00 in0.0 mm
01:05 PM 34.8°F1.6°C 31.3°F-0.4°C 87% Calm Calm 1.0 mph1.6 kmh 30.32 in1026.8 mb 0.00 in0.0 mm 0.00 in0.0 mm 0.00 in0.0 mm
01:10 PM 34.9°F1.6°C 31.4°F-0.3°C 87% Calm Calm 2.0 mph3.2 kmh 30.32 in1026.8 mb 0.00 in0.0 mm 0.00 in0.0 mm 0.00 in0.0 mm
01:15 PM 35.0°F1.7°C 31.5°F-0.3°C 87% Calm Calm -- 30.32 in1026.8 mb 0.00 in0.0 mm 0.00 in0.0 mm 0.00 in0.0 mm
01:20 PM 34.9°F1.6°C 31.4°F-0.3°C 87% Calm Calm -- 30.32 in1026.8 mb 0.01 in0.3 mm 0.12 in3.0 mm 0.01 in0.3 mm
01:25 PM 35.0°F1.7°C 31.2°F-0.4°C 86% Calm Calm 1.0 mph1.6 kmh 30.32 in1026.8 mb 0.01 in0.3 mm 0.00 in0.0 mm 0.01 in0.3 mm
01:30 PM 35.1°F1.7°C 31.3°F-0.4°C 86% Calm Calm 1.0 mph1.6 kmh 30.32 in1026.8 mb 0.01 in0.3 mm 0.00 in0.0 mm 0.01 in0.3 mm
01:35 PM 35.2°F1.8°C 31.4°F-0.3°C 86% Calm Calm -- 30.31 in1026.4 mb 0.01 in0.3 mm 0.00 in0.0 mm 0.01 in0.3 mm
01:39 PM 35.2°F1.8°C 31.4°F-0.3°C 86% Calm Calm -- 30.31 in1026.4 mb 0.01 in0.3 mm 0.00 in0.0 mm 0.01 in0.3 mm
01:45 PM 35.2°F1.8°C 31.2°F-0.4°C 85% Calm Calm 2.0 mph3.2 kmh 30.31 in1026.4 mb 0.01 in0.3 mm 0.00 in0.0 mm 0.01 in0.3 mm
01:50 PM 35.2°F1.8°C 30.9°F-0.6°C 84% Calm Calm 1.0 mph1.6 kmh 30.30 in1026.1 mb 0.01 in0.3 mm 0.00 in0.0 mm 0.01 in0.3 mm
01:55 PM 35.1°F1.7°C 30.2°F-1.0°C 82% Calm Calm 1.0 mph1.6 kmh 30.30 in1026.1 mb 0.01 in0.3 mm 0.00 in0.0 mm 0.01 in0.3 mm
02:00 PM 35.1°F1.7°C 30.2°F-1.0°C 82% Calm Calm -- 30.30 in1026.1 mb 0.01 in0.3 mm 0.00 in0.0 mm 0.01 in0.3 mm
02:05 PM 35.1°F1.7°C 30.2°F-1.0°C 82% Calm Calm -- 30.30 in1026.1 mb 0.01 in0.3 mm 0.00 in0.0 mm 0.01 in0.3 mm
02:10 PM 35.2°F1.8°C 30.3°F-0.9°C 82% Calm Calm -- 30.30 in1026.1 mb 0.01 in0.3 mm 0.00 in0.0 mm 0.01 in0.3 mm
02:15 PM 35.3°F1.8°C 30.4°F-0.9°C 82% Calm Calm -- 30.30 in1026.1 mb 0.01 in0.3 mm 0.00 in0.0 mm 0.01 in0.3 mm
02:19 PM 35.3°F1.8°C 30.1°F-1.1°C 81% Calm Calm -- 30.29 in1025.7 mb 0.01 in0.3 mm 0.00 in0.0 mm 0.01 in0.3 mm
02:24 PM 35.4°F1.9°C 30.2°F-1.0°C 81% Calm Calm 1.0 mph1.6 kmh 30.29 in1025.7 mb 0.00 in0.0 mm 0.00 in0.0 mm 0.01 in0.3 mm
02:30 PM 35.3°F1.8°C 30.1°F-1.1°C 81% Calm Calm 1.0 mph1.6 kmh 30.30 in1026.1 mb 0.00 in0.0 mm 0.00 in0.0 mm 0.01 in0.3 mm
02:35 PM 35.3°F1.8°C 30.1°F-1.1°C 81% 1.0 mph SW1.6 kmh SW 2.0 mph3.2 kmh 30.30 in1026.1 mb 0.00 in0.0 mm 0.00 in0.0 mm 0.01 in0.3 mm
02:40 PM 35.3°F1.8°C 29.8°F-1.2°C 80% 1.0 mph WNW1.6 kmh WNW 3.0 mph4.8 kmh 30.30 in1026.1 mb 0.00 in0.0 mm 0.00 in0.0 mm 0.01 in0.3 mm
02:45 PM 35.2°F1.8°C 29.7°F-1.3°C 80% 2.0 mph NW3.2 kmh NW 3.0 mph4.8 kmh 30.30 in1026.1 mb 0.00 in0.0 mm 0.00 in0.0 mm 0.01 in0.3 mm
02:50 PM 35.2°F1.8°C 29.4°F-1.4°C 79% Calm Calm 3.0 mph4.8 kmh 30.30 in1026.1 mb 0.00 in0.0 mm 0.00 in0.0 mm 0.01 in0.3 mm
02:55 PM 35.2°F1.8°C 29.7°F-1.3°C 80% Calm Calm 1.0 mph1.6 kmh 30.30 in1026.1 mb 0.00 in0.0 mm 0.00 in0.0 mm 0.01 in0.3 mm
03:00 PM 35.2°F1.8°C 29.7°F-1.3°C 80% 1.0 mph NNW1.6 kmh NNW 3.0 mph4.8 kmh 30.29 in1025.7 mb 0.00 in0.0 mm 0.00 in0.0 mm 0.01 in0.3 mm
03:05 PM 35.2°F1.8°C 29.4°F-1.4°C 79% 1.0 mph N1.6 kmh N 3.0 mph4.8 kmh 30.29 in1025.7 mb 0.00 in0.0 mm 0.00 in0.0 mm 0.01 in0.3 mm
03:10 PM 35.2°F1.8°C 29.4°F-1.4°C 79% Calm Calm 2.0 mph3.2 kmh 30.29 in1025.7 mb 0.00 in0.0 mm 0.00 in0.0 mm 0.01 in0.3 mm
03:15 PM 35.2°F1.8°C 29.7°F-1.3°C 80% Calm Calm -- 30.29 in1025.7 mb 0.00 in0.0 mm 0.00 in0.0 mm 0.01 in0.3 mm
03:19 PM 35.4°F1.9°C 29.9°F-1.2°C 80% Calm Calm 2.0 mph3.2 kmh 30.28 in1025.4 mb 0.00 in0.0 mm 0.00 in0.0 mm 0.01 in0.3 mm
03:25 PM 35.4°F1.9°C 29.9°F-1.2°C 80% 2.0 mph NW3.2 kmh NW 3.0 mph4.8 kmh 30.28 in1025.4 mb 0.00 in0.0 mm 0.00 in0.0 mm 0.01 in0.3 mm
03:30 PM 35.6°F2.0°C 30.1°F-1.1°C 80% 2.0 mph W3.2 kmh W 4.0 mph6.4 kmh 30.28 in1025.4 mb 0.00 in0.0 mm 0.00 in0.0 mm 0.01 in0.3 mm
03:35 PM 35.5°F1.9°C 29.6°F-1.3°C 79% Calm Calm 2.0 mph3.2 kmh 30.28 in1025.4 mb 0.00 in0.0 mm 0.00 in0.0 mm 0.01 in0.3 mm
03:40 PM 35.5°F1.9°C 30.0°F-1.1°C 80% Calm Calm 3.0 mph4.8 kmh 30.28 in1025.4 mb 0.00 in0.0 mm 0.00 in0.0 mm 0.01 in0.3 mm
03:45 PM 35.5°F1.9°C 30.0°F-1.1°C 80% 4.0 mph W6.4 kmh W 4.0 mph6.4 kmh 30.28 in1025.4 mb 0.00 in0.0 mm 0.00 in0.0 mm 0.01 in0.3 mm
03:50 PM 35.6°F2.0°C 30.1°F-1.1°C 80% 2.0 mph W3.2 kmh W 3.0 mph4.8 kmh 30.28 in1025.4 mb 0.00 in0.0 mm 0.00 in0.0 mm 0.01 in0.3 mm
03:55 PM 35.4°F1.9°C 29.6°F-1.3°C 79% 1.0 mph W1.6 kmh W 4.0 mph6.4 kmh 30.28 in1025.4 mb 0.02 in0.5 mm 0.24 in6.1 mm 0.03 in0.8 mm
04:00 PM 35.3°F1.8°C 29.5°F-1.4°C 79% Calm Calm -- 30.28 in1025.4 mb 0.02 in0.5 mm 0.00 in0.0 mm 0.03 in0.8 mm
04:05 PM 35.3°F1.8°C 29.8°F-1.2°C 80% Calm Calm -- 30.28 in1025.4 mb 0.02 in0.5 mm 0.00 in0.0 mm 0.03 in0.8 mm
04:10 PM 35.3°F1.8°C 29.8°F-1.2°C 80% Calm Calm -- 30.28 in1025.4 mb 0.02 in0.5 mm 0.00 in0.0 mm 0.03 in0.8 mm
04:15 PM 35.3°F1.8°C 29.8°F-1.2°C 80% Calm Calm -- 30.28 in1025.4 mb 0.02 in0.5 mm 0.00 in0.0 mm 0.03 in0.8 mm
04:20 PM 35.4°F1.9°C 29.9°F-1.2°C 80% Calm Calm -- 30.28 in1025.4 mb 0.02 in0.5 mm 0.00 in0.0 mm 0.03 in0.8 mm
04:25 PM 35.4°F1.9°C 29.9°F-1.2°C 80% Calm Calm -- 30.28 in1025.4 mb 0.02 in0.5 mm 0.00 in0.0 mm 0.03 in0.8 mm
04:30 PM 35.3°F1.8°C 29.8°F-1.2°C 80% Calm Calm -- 30.28 in1025.4 mb 0.02 in0.5 mm 0.00 in0.0 mm 0.03 in0.8 mm
04:35 PM 35.2°F1.8°C 29.7°F-1.3°C 80% Calm Calm -- 30.28 in1025.4 mb 0.02 in0.5 mm 0.00 in0.0 mm 0.03 in0.8 mm
04:40 PM 35.2°F1.8°C 29.4°F-1.4°C 79% Calm Calm -- 30.28 in1025.4 mb 0.02 in0.5 mm 0.00 in0.0 mm 0.03 in0.8 mm
04:44 PM 35.1°F1.7°C 29.3°F-1.5°C 79% Calm Calm -- 30.28 in1025.4 mb 0.02 in0.5 mm 0.00 in0.0 mm 0.03 in0.8 mm
04:50 PM 35.2°F1.8°C 29.7°F-1.3°C 80% Calm Calm -- 30.29 in1025.7 mb 0.02 in0.5 mm 0.00 in0.0 mm 0.03 in0.8 mm
04:55 PM 35.2°F1.8°C 29.7°F-1.3°C 80% Calm Calm -- 30.29 in1025.7 mb 0.02 in0.5 mm 0.00 in0.0 mm 0.03 in0.8 mm
04:59 PM 35.2°F1.8°C 29.7°F-1.3°C 80% Calm Calm -- 30.28 in1025.4 mb 0.00 in0.0 mm 0.00 in0.0 mm 0.03 in0.8 mm
05:05 PM 35.2°F1.8°C 29.7°F-1.3°C 80% Calm Calm -- 30.29 in1025.7 mb 0.00 in0.0 mm 0.00 in0.0 mm 0.03 in0.8 mm
05:10 PM 35.1°F1.7°C 29.6°F-1.3°C 80% Calm Calm -- 30.28 in1025.4 mb 0.00 in0.0 mm 0.00 in0.0 mm 0.03 in0.8 mm
05:15 PM 35.1°F1.7°C 29.6°F-1.3°C 80% Calm Calm -- 30.29 in1025.7 mb 0.00 in0.0 mm 0.00 in0.0 mm 0.03 in0.8 mm
05:20 PM 35.1°F1.7°C 29.6°F-1.3°C 80% Calm Calm -- 30.28 in1025.4 mb 0.00 in0.0 mm 0.00 in0.0 mm 0.03 in0.8 mm
05:24 PM 35.1°F1.7°C 29.6°F-1.3°C 80% Calm Calm -- 30.29 in1025.7 mb 0.00 in0.0 mm 0.00 in0.0 mm 0.03 in0.8 mm
05:30 PM 35.0°F1.7°C 29.5°F-1.4°C 80% Calm Calm -- 30.29 in1025.7 mb 0.00 in0.0 mm 0.00 in0.0 mm 0.03 in0.8 mm
05:35 PM 35.1°F1.7°C 29.6°F-1.3°C 80% Calm Calm -- 30.29 in1025.7 mb 0.00 in0.0 mm 0.00 in0.0 mm 0.03 in0.8 mm
05:40 PM 35.0°F1.7°C 29.5°F-1.4°C 80% Calm Calm -- 30.29 in1025.7 mb 0.00 in0.0 mm 0.00 in0.0 mm 0.03 in0.8 mm
05:44 PM 35.1°F1.7°C 29.6°F-1.3°C 80% Calm Calm -- 30.29 in1025.7 mb 0.00 in0.0 mm 0.00 in0.0 mm 0.03 in0.8 mm
05:50 PM 35.1°F1.7°C 29.6°F-1.3°C 80% Calm Calm -- 30.29 in1025.7 mb 0.00 in0.0 mm 0.00 in0.0 mm 0.03 in0.8 mm
05:54 PM 35.1°F1.7°C 29.6°F-1.3°C 80% Calm Calm 1.0 mph1.6 kmh 30.29 in1025.7 mb 0.00 in0.0 mm 0.00 in0.0 mm 0.03 in0.8 mm
06:00 PM 35.0°F1.7°C 29.5°F-1.4°C 80% Calm Calm -- 30.29 in1025.7 mb 0.00 in0.0 mm 0.00 in0.0 mm 0.03 in0.8 mm
06:04 PM 35.0°F1.7°C 29.5°F-1.4°C 80% Calm Calm -- 30.28 in1025.4 mb 0.00 in0.0 mm 0.00 in0.0 mm 0.03 in0.8 mm
06:09 PM 35.0°F1.7°C 29.5°F-1.4°C 80% Calm Calm -- 30.28 in1025.4 mb 0.00 in0.0 mm 0.00 in0.0 mm 0.03 in0.8 mm
06:15 PM 34.9°F1.6°C 29.7°F-1.3°C 81% Calm Calm -- 30.28 in1025.4 mb 0.00 in0.0 mm 0.00 in0.0 mm 0.03 in0.8 mm
06:20 PM 34.9°F1.6°C 29.7°F-1.3°C 81% Calm Calm -- 30.28 in1025.4 mb 0.00 in0.0 mm 0.00 in0.0 mm 0.03 in0.8 mm
06:25 PM 34.9°F1.6°C 29.7°F-1.3°C 81% Calm Calm -- 30.28 in1025.4 mb 0.00 in0.0 mm 0.00 in0.0 mm 0.03 in0.8 mm
06:30 PM 34.8°F1.6°C 29.6°F-1.3°C 81% 2.0 mph W3.2 kmh W 2.0 mph3.2 kmh 30.28 in1025.4 mb 0.00 in0.0 mm 0.00 in0.0 mm 0.03 in0.8 mm
06:35 PM 34.9°F1.6°C 29.7°F-1.3°C 81% 1.0 mph W1.6 kmh W 1.0 mph1.6 kmh 30.28 in1025.4 mb 0.00 in0.0 mm 0.00 in0.0 mm 0.03 in0.8 mm
06:40 PM 34.9°F1.6°C 29.7°F-1.3°C 81% 1.0 mph W1.6 kmh W 2.0 mph3.2 kmh 30.28 in1025.4 mb 0.00 in0.0 mm 0.00 in0.0 mm 0.03 in0.8 mm
06:45 PM 34.9°F1.6°C 29.7°F-1.3°C 81% Calm Calm -- 30.28 in1025.4 mb 0.00 in0.0 mm 0.00 in0.0 mm 0.03 in0.8 mm
06:50 PM 34.8°F1.6°C 29.6°F-1.3°C 81% Calm Calm -- 30.28 in1025.4 mb 0.00 in0.0 mm 0.00 in0.0 mm 0.03 in0.8 mm
06:55 PM 34.8°F1.6°C 29.6°F-1.3°C 81% Calm Calm -- 30.28 in1025.4 mb 0.00 in0.0 mm 0.00 in0.0 mm 0.03 in0.8 mm
06:59 PM 34.8°F1.6°C 29.9°F-1.2°C 82% Calm Calm -- 30.29 in1025.7 mb 0.00 in0.0 mm 0.00 in0.0 mm 0.03 in0.8 mm
07:05 PM 34.7°F1.5°C 29.5°F-1.4°C 81% Calm Calm 3.0 mph4.8 kmh 30.29 in1025.7 mb 0.00 in0.0 mm 0.00 in0.0 mm 0.03 in0.8 mm
07:10 PM 34.8°F1.6°C 29.6°F-1.3°C 81% Calm Calm 1.0 mph1.6 kmh 30.29 in1025.7 mb 0.01 in0.3 mm 0.12 in3.0 mm 0.04 in1.0 mm
07:15 PM 34.7°F1.5°C 29.5°F-1.4°C 81% 2.0 mph NE3.2 kmh NE 2.0 mph3.2 kmh 30.28 in1025.4 mb 0.01 in0.3 mm 0.00 in0.0 mm 0.04 in1.0 mm
07:20 PM 34.7°F1.5°C 29.5°F-1.4°C 81% 2.0 mph NE3.2 kmh NE 2.0 mph3.2 kmh 30.28 in1025.4 mb 0.01 in0.3 mm 0.00 in0.0 mm 0.04 in1.0 mm
07:25 PM 34.7°F1.5°C 29.5°F-1.4°C 81% 2.0 mph NE3.2 kmh NE 3.0 mph4.8 kmh 30.28 in1025.4 mb 0.01 in0.3 mm 0.00 in0.0 mm 0.04 in1.0 mm
07:29 PM 34.6°F1.4°C 29.4°F-1.4°C 81% Calm Calm 3.0 mph4.8 kmh 30.28 in1025.4 mb 0.01 in0.3 mm 0.00 in0.0 mm 0.04 in1.0 mm
07:35 PM 34.6°F1.4°C 29.4°F-1.4°C 81% Calm Calm 1.0 mph1.6 kmh 30.29 in1025.7 mb 0.01 in0.3 mm 0.00 in0.0 mm 0.04 in1.0 mm
07:39 PM 34.6°F1.4°C 29.7°F-1.3°C 82% Calm Calm 1.0 mph1.6 kmh 30.29 in1025.7 mb 0.01 in0.3 mm 0.00 in0.0 mm 0.04 in1.0 mm
07:44 PM 34.5°F1.4°C 29.6°F-1.3°C 82% Calm Calm 2.0 mph3.2 kmh 30.29 in1025.7 mb 0.01 in0.3 mm 0.00 in0.0 mm 0.04 in1.0 mm
07:49 PM 34.5°F1.4°C 29.6°F-1.3°C 82% 1.0 mph NE1.6 kmh NE 2.0 mph3.2 kmh 30.29 in1025.7 mb 0.01 in0.3 mm 0.00 in0.0 mm 0.04 in1.0 mm
07:55 PM 34.5°F1.4°C 29.6°F-1.3°C 82% Calm Calm -- 30.30 in1026.1 mb 0.01 in0.3 mm 0.00 in0.0 mm 0.04 in1.0 mm
08:00 PM 34.5°F1.4°C 29.6°F-1.3°C 82% 1.0 mph NE1.6 kmh NE 2.0 mph3.2 kmh 30.30 in1026.1 mb 0.01 in0.3 mm 0.00 in0.0 mm 0.04 in1.0 mm
08:05 PM 34.5°F1.4°C 29.6°F-1.3°C 82% Calm Calm 1.0 mph1.6 kmh 30.30 in1026.1 mb 0.01 in0.3 mm 0.00 in0.0 mm 0.04 in1.0 mm
08:10 PM 34.4°F1.3°C 29.5°F-1.4°C 82% Calm Calm -- 30.31 in1026.4 mb 0.01 in0.3 mm 0.00 in0.0 mm 0.04 in1.0 mm
08:15 PM 34.4°F1.3°C 29.5°F-1.4°C 82% Calm Calm -- 30.31 in1026.4 mb 0.00 in0.0 mm 0.00 in0.0 mm 0.04 in1.0 mm
08:20 PM 34.3°F1.3°C 29.7°F-1.3°C 83% Calm Calm 1.0 mph1.6 kmh 30.31 in1026.4 mb 0.00 in0.0 mm 0.00 in0.0 mm 0.04 in1.0 mm
08:25 PM 34.3°F1.3°C 29.7°F-1.3°C 83% 1.0 mph NE1.6 kmh NE 2.0 mph3.2 kmh 30.31 in1026.4 mb 0.00 in0.0 mm 0.00 in0.0 mm 0.04 in1.0 mm
08:30 PM 34.3°F1.3°C 29.7°F-1.3°C 83% Calm Calm 2.0 mph3.2 kmh 30.31 in1026.4 mb 0.00 in0.0 mm 0.00 in0.0 mm 0.04 in1.0 mm
08:35 PM 34.3°F1.3°C 29.7°F-1.3°C 83% Calm Calm 1.0 mph1.6 kmh 30.31 in1026.4 mb 0.00 in0.0 mm 0.00 in0.0 mm 0.04 in1.0 mm
08:40 PM 34.3°F1.3°C 29.7°F-1.3°C 83% Calm Calm -- 30.31 in1026.4 mb 0.00 in0.0 mm 0.00 in0.0 mm 0.04 in1.0 mm
08:45 PM 34.3°F1.3°C 29.7°F-1.3°C 83% Calm Calm -- 30.31 in1026.4 mb 0.00 in0.0 mm 0.00 in0.0 mm 0.04 in1.0 mm
08:50 PM 34.2°F1.2°C 29.6°F-1.3°C 83% Calm Calm -- 30.31 in1026.4 mb 0.00 in0.0 mm 0.00 in0.0 mm 0.04 in1.0 mm
08:55 PM 34.2°F1.2°C 29.6°F-1.3°C 83% Calm Calm -- 30.31 in1026.4 mb 0.00 in0.0 mm 0.00 in0.0 mm 0.04 in1.0 mm
09:00 PM 34.2°F1.2°C 29.6°F-1.3°C 83% Calm Calm 1.0 mph1.6 kmh 30.31 in1026.4 mb 0.00 in0.0 mm 0.00 in0.0 mm 0.04 in1.0 mm
09:05 PM 34.2°F1.2°C 29.6°F-1.3°C 83% Calm Calm -- 30.31 in1026.4 mb 0.00 in0.0 mm 0.00 in0.0 mm 0.04 in1.0 mm
09:10 PM 34.2°F1.2°C 29.6°F-1.3°C 83% Calm Calm -- 30.31 in1026.4 mb 0.00 in0.0 mm 0.00 in0.0 mm 0.04 in1.0 mm
09:15 PM 34.1°F1.2°C 29.8°F-1.2°C 84% Calm Calm -- 30.31 in1026.4 mb 0.00 in0.0 mm 0.00 in0.0 mm 0.04 in1.0 mm
09:20 PM 34.1°F1.2°C 29.5°F-1.4°C 83% Calm Calm -- 30.31 in1026.4 mb 0.00 in0.0 mm 0.00 in0.0 mm 0.04 in1.0 mm
09:25 PM 34.1°F1.2°C 29.5°F-1.4°C 83% Calm Calm -- 30.31 in1026.4 mb 0.00 in0.0 mm 0.00 in0.0 mm 0.04 in1.0 mm
09:30 PM 34.1°F1.2°C 29.5°F-1.4°C 83% Calm Calm -- 30.31 in1026.4 mb 0.00 in0.0 mm 0.00 in0.0 mm 0.04 in1.0 mm
09:35 PM 34.0°F1.1°C 29.4°F-1.4°C 83% Calm Calm -- 30.31 in1026.4 mb 0.00 in0.0 mm 0.00 in0.0 mm 0.04 in1.0 mm
09:40 PM 34.0°F1.1°C 29.4°F-1.4°C 83% Calm Calm 1.0 mph1.6 kmh 30.31 in1026.4 mb 0.00 in0.0 mm 0.00 in0.0 mm 0.04 in1.0 mm
09:45 PM 34.0°F1.1°C 29.4°F-1.4°C 83% Calm Calm -- 30.31 in1026.4 mb 0.00 in0.0 mm 0.00 in0.0 mm 0.04 in1.0 mm
09:50 PM 34.0°F1.1°C 29.4°F-1.4°C 83% Calm Calm -- 30.31 in1026.4 mb 0.00 in0.0 mm 0.00 in0.0 mm 0.04 in1.0 mm
09:55 PM 33.9°F1.1°C 29.3°F-1.5°C 83% Calm Calm -- 30.31 in1026.4 mb 0.00 in0.0 mm 0.00 in0.0 mm 0.04 in1.0 mm
10:00 PM 33.9°F1.1°C 29.3°F-1.5°C 83% Calm Calm -- 30.31 in1026.4 mb 0.00 in0.0 mm 0.00 in0.0 mm 0.04 in1.0 mm
10:05 PM 33.9°F1.1°C 29.3°F-1.5°C 83% 1.0 mph NE1.6 kmh NE 2.0 mph3.2 kmh 30.31 in1026.4 mb 0.00 in0.0 mm 0.00 in0.0 mm 0.04 in1.0 mm
10:09 PM 33.9°F1.1°C 29.3°F-1.5°C 83% Calm Calm -- 30.30 in1026.1 mb 0.00 in0.0 mm 0.00 in0.0 mm 0.04 in1.0 mm
10:15 PM 33.9°F1.1°C 29.3°F-1.5°C 83% Calm Calm 3.0 mph4.8 kmh 30.30 in1026.1 mb 0.00 in0.0 mm 0.00 in0.0 mm 0.04 in1.0 mm
10:20 PM 33.9°F1.1°C 29.3°F-1.5°C 83% Calm Calm 5.0 mph8.0 kmh 30.30 in1026.1 mb 0.00 in0.0 mm 0.00 in0.0 mm 0.04 in1.0 mm
10:25 PM 33.9°F1.1°C 29.3°F-1.5°C 83% Calm Calm 4.0 mph6.4 kmh 30.30 in1026.1 mb 0.00 in0.0 mm 0.00 in0.0 mm 0.04 in1.0 mm
10:30 PM 33.9°F1.1°C 29.3°F-1.5°C 83% Calm Calm 6.0 mph9.7 kmh 30.30 in1026.1 mb 0.00 in0.0 mm 0.00 in0.0 mm 0.04 in1.0 mm
10:35 PM 34.0°F1.1°C 29.4°F-1.4°C 83% Calm Calm 2.0 mph3.2 kmh 30.30 in1026.1 mb 0.00 in0.0 mm 0.00 in0.0 mm 0.04 in1.0 mm
10:40 PM 34.0°F1.1°C 29.4°F-1.4°C 83% 3.0 mph SE4.8 kmh SE 3.0 mph4.8 kmh 30.29 in1025.7 mb 0.00 in0.0 mm 0.00 in0.0 mm 0.04 in1.0 mm
10:45 PM 33.9°F1.1°C 29.3°F-1.5°C 83% Calm Calm 3.0 mph4.8 kmh 30.29 in1025.7 mb 0.00 in0.0 mm 0.00 in0.0 mm 0.04 in1.0 mm
10:49 PM 33.9°F1.1°C 29.3°F-1.5°C 83% Calm Calm 2.0 mph3.2 kmh 30.29 in1025.7 mb 0.00 in0.0 mm 0.00 in0.0 mm 0.04 in1.0 mm
10:55 PM 33.9°F1.1°C 29.3°F-1.5°C 83% Calm Calm 5.0 mph8.0 kmh 30.29 in1025.7 mb 0.00 in0.0 mm 0.00 in0.0 mm 0.04 in1.0 mm
11:00 PM 33.9°F1.1°C 29.3°F-1.5°C 83% Calm Calm 7.0 mph11.3 kmh 30.29 in1025.7 mb 0.00 in0.0 mm 0.00 in0.0 mm 0.04 in1.0 mm
11:05 PM 33.8°F1.0°C 29.5°F-1.4°C 84% Calm Calm 6.0 mph9.7 kmh 30.30 in1026.1 mb 0.00 in0.0 mm 0.00 in0.0 mm 0.04 in1.0 mm
11:09 PM 33.8°F1.0°C 29.5°F-1.4°C 84% 2.0 mph SSE3.2 kmh SSE 5.0 mph8.0 kmh 30.30 in1026.1 mb 0.00 in0.0 mm 0.00 in0.0 mm 0.04 in1.0 mm
11:15 PM 33.8°F1.0°C 29.5°F-1.4°C 84% Calm Calm 5.0 mph8.0 kmh 30.30 in1026.1 mb 0.00 in0.0 mm 0.00 in0.0 mm 0.04 in1.0 mm
11:20 PM 33.8°F1.0°C 29.5°F-1.4°C 84% 2.0 mph SSE3.2 kmh SSE 2.0 mph3.2 kmh 30.30 in1026.1 mb 0.00 in0.0 mm 0.00 in0.0 mm 0.04 in1.0 mm
11:25 PM 33.8°F1.0°C 29.5°F-1.4°C 84% 2.0 mph SSE3.2 kmh SSE 4.0 mph6.4 kmh 30.30 in1026.1 mb 0.00 in0.0 mm 0.00 in0.0 mm 0.04 in1.0 mm
11:30 PM 33.8°F1.0°C 29.5°F-1.4°C 84% 2.0 mph SE3.2 kmh SE 4.0 mph6.4 kmh 30.30 in1026.1 mb 0.00 in0.0 mm 0.00 in0.0 mm 0.04 in1.0 mm
11:35 PM 33.7°F0.9°C 29.4°F-1.4°C 84% 2.0 mph SSE3.2 kmh SSE 4.0 mph6.4 kmh 30.30 in1026.1 mb 0.00 in0.0 mm 0.00 in0.0 mm 0.04 in1.0 mm
11:40 PM 33.7°F0.9°C 29.4°F-1.4°C 84% 1.0 mph SE1.6 kmh SE 2.0 mph3.2 kmh 30.30 in1026.1 mb 0.00 in0.0 mm 0.00 in0.0 mm 0.04 in1.0 mm
11:45 PM 33.7°F0.9°C 29.7°F-1.3°C 85% 2.0 mph SSE3.2 kmh SSE 4.0 mph6.4 kmh 30.30 in1026.1 mb 0.00 in0.0 mm 0.00 in0.0 mm 0.04 in1.0 mm
11:50 PM 33.7°F0.9°C 29.7°F-1.3°C 85% Calm Calm 4.0 mph6.4 kmh 30.29 in1025.7 mb 0.00 in0.0 mm 0.00 in0.0 mm 0.04 in1.0 mm
11:55 PM 33.6°F0.9°C 29.6°F-1.3°C 85% Calm Calm 4.0 mph6.4 kmh 30.30 in1026.1 mb 0.00 in0.0 mm 0.00 in0.0 mm 0.04 in1.0 mm